createdAt,value
2017-10-20T00:00:01.457Z,16.50
2017-10-20T00:01:01.453Z,16.40
2017-10-20T00:02:01.446Z,16.60
2017-10-20T00:03:01.442Z,15.20
2017-10-20T00:04:01.438Z,16.30
2017-10-20T00:05:22.442Z,15.80
2017-10-20T00:06:01.428Z,15.80
2017-10-20T00:07:01.423Z,15.40
2017-10-20T00:08:01.418Z,16.50
2017-10-20T00:09:01.415Z,15.70
2017-10-20T00:10:01.414Z,15.50
2017-10-20T00:11:22.413Z,16.30
2017-10-20T00:12:01.401Z,16.10
2017-10-20T00:13:01.394Z,16.30
2017-10-20T00:14:01.394Z,15.80
2017-10-20T00:15:01.397Z,16.60
2017-10-20T00:16:01.382Z,15.60
2017-10-20T00:17:22.403Z,15.80
2017-10-20T00:18:01.375Z,15.30
2017-10-20T00:19:01.373Z,16.50
2017-10-20T00:20:01.363Z,15.30
2017-10-20T00:21:01.362Z,15.40
2017-10-20T00:22:01.355Z,14.80
2017-10-20T00:23:22.354Z,15.20
2017-10-20T00:24:01.348Z,14.60
2017-10-20T00:25:01.341Z,15.10
2017-10-20T00:26:01.335Z,14.80
2017-10-20T00:27:01.330Z,15.30
2017-10-20T00:28:01.337Z,15.50
2017-10-20T00:29:22.331Z,15.60
2017-10-20T00:30:01.316Z,16.10
2017-10-20T00:31:01.313Z,15.10
2017-10-20T00:32:01.308Z,15.30
2017-10-20T00:33:01.306Z,15.10
2017-10-20T00:34:01.301Z,14.10
2017-10-20T00:35:22.303Z,14.10
2017-10-20T00:36:01.293Z,14.20
2017-10-20T00:37:01.286Z,13.80
2017-10-20T00:38:01.280Z,14.40
2017-10-20T00:39:01.292Z,14.80
2017-10-20T00:40:01.275Z,14.60
2017-10-20T00:41:22.277Z,13.80
2017-10-20T00:42:01.276Z,14.90
2017-10-20T00:43:01.269Z,15.80
2017-10-20T00:44:01.261Z,14.40
2017-10-20T00:45:01.277Z,15.30
2017-10-20T00:46:01.249Z,14.70
2017-10-20T00:47:22.247Z,15.30
2017-10-20T00:48:01.253Z,15.10
2017-10-20T00:49:01.233Z,14.00
2017-10-20T00:50:01.227Z,14.30
2017-10-20T00:51:01.223Z,15.80
2017-10-20T00:52:01.218Z,16.10
2017-10-20T00:53:22.222Z,15.90
2017-10-20T00:54:01.207Z,16.40
2017-10-20T00:55:01.204Z,16.60
2017-10-20T00:56:01.199Z,16.90
2017-10-20T00:57:01.196Z,17.30
2017-10-20T00:58:01.192Z,15.20
2017-10-20T00:59:22.193Z,15.70
2017-10-20T01:00:01.180Z,15.70
2017-10-20T01:01:01.185Z,15.40
2017-10-20T01:02:01.175Z,15.50
2017-10-20T01:03:01.994Z,15.10
2017-10-20T01:04:01.185Z,16.20
2017-10-20T01:05:22.165Z,16.70
2017-10-20T01:06:01.154Z,16.50
2017-10-20T01:07:01.154Z,15.60
2017-10-20T01:08:01.162Z,16.00
2017-10-20T01:09:01.166Z,15.50
2017-10-20T01:10:01.134Z,15.00
2017-10-20T01:11:22.132Z,15.30
2017-10-20T01:12:01.127Z,16.20
2017-10-20T01:13:01.120Z,16.40
2017-10-20T01:14:01.114Z,16.00
2017-10-20T01:15:01.117Z,16.10
2017-10-20T01:16:01.097Z,16.10
2017-10-20T01:17:22.116Z,14.40
2017-10-20T01:18:01.093Z,14.80
2017-10-20T01:19:01.091Z,15.80
2017-10-20T01:20:01.086Z,16.60
2017-10-20T01:21:01.081Z,15.40
2017-10-20T01:22:01.076Z,15.70
2017-10-20T01:23:22.080Z,16.70
2017-10-20T01:24:01.072Z,16.00
2017-10-20T01:25:01.061Z,15.70
2017-10-20T01:26:01.057Z,14.70
2017-10-20T01:27:01.057Z,15.10
2017-10-20T01:28:01.051Z,14.80
2017-10-20T01:29:22.075Z,14.20
2017-10-20T01:30:01.041Z,15.00
2017-10-20T01:31:01.034Z,15.30
2017-10-20T01:32:01.029Z,15.70
2017-10-20T01:33:01.024Z,14.60
2017-10-20T01:34:01.025Z,14.70
2017-10-20T01:35:22.025Z,15.70
2017-10-20T01:36:01.021Z,15.30
2017-10-20T01:37:01.021Z,15.20
2017-10-20T01:38:01.005Z,15.30
2017-10-20T01:39:01.000Z,15.10
2017-10-20T01:40:00.992Z,15.50
2017-10-20T01:41:21.999Z,16.70
2017-10-20T01:42:00.988Z,15.00
2017-10-20T01:43:00.979Z,15.90
2017-10-20T01:44:00.977Z,15.10
2017-10-20T01:45:00.970Z,15.10
2017-10-20T01:46:00.973Z,15.10
2017-10-20T01:47:21.968Z,16.10
2017-10-20T01:48:00.957Z,15.80
2017-10-20T01:49:00.951Z,15.80
2017-10-20T01:50:00.948Z,15.40
2017-10-20T01:51:00.944Z,16.50
2017-10-20T01:52:00.938Z,17.20
2017-10-20T01:53:21.945Z,17.10
2017-10-20T01:54:00.928Z,17.80
2017-10-20T01:55:00.924Z,18.10
2017-10-20T01:56:00.920Z,19.50
2017-10-20T01:57:00.917Z,18.20
2017-10-20T01:58:00.924Z,18.00
2017-10-20T01:59:21.915Z,18.60
2017-10-20T02:00:00.900Z,17.90
2017-10-20T02:01:00.908Z,18.70
2017-10-20T02:02:00.892Z,18.20
2017-10-20T02:03:00.892Z,16.60
2017-10-20T02:04:00.894Z,17.20
2017-10-20T02:05:21.890Z,17.30
2017-10-20T02:06:00.876Z,16.50
2017-10-20T02:07:00.870Z,17.40
2017-10-20T02:08:00.870Z,16.90
2017-10-20T02:09:00.858Z,16.10
2017-10-20T02:10:00.856Z,15.00
2017-10-20T02:11:21.856Z,16.10
2017-10-20T02:12:00.844Z,15.60
2017-10-20T02:13:00.844Z,16.30
2017-10-20T02:14:00.833Z,15.60
2017-10-20T02:15:00.829Z,14.90
2017-10-20T02:16:00.826Z,16.00
2017-10-20T02:17:21.830Z,14.60
2017-10-20T02:18:00.821Z,15.60
2017-10-20T02:19:00.814Z,15.70
2017-10-20T02:20:00.808Z,15.40
2017-10-20T02:21:00.807Z,15.60
2017-10-20T02:22:00.798Z,16.60
2017-10-20T02:23:21.803Z,15.70
2017-10-20T02:24:00.790Z,14.50
2017-10-20T02:25:00.784Z,16.40
2017-10-20T02:26:00.781Z,15.70
2017-10-20T02:27:00.774Z,14.40
2017-10-20T02:28:00.770Z,14.80
2017-10-20T02:29:21.774Z,16.60
2017-10-20T02:30:00.777Z,15.30
2017-10-20T02:31:00.758Z,14.50
2017-10-20T02:32:00.753Z,15.70
2017-10-20T02:33:00.751Z,15.20
2017-10-20T02:34:00.744Z,14.60
2017-10-20T02:35:21.746Z,14.70
2017-10-20T02:36:00.735Z,15.50
2017-10-20T02:37:00.725Z,14.90
2017-10-20T02:38:00.726Z,14.20
2017-10-20T02:39:00.803Z,15.00
2017-10-20T02:40:00.714Z,14.70
2017-10-20T02:41:21.718Z,14.90
2017-10-20T02:42:00.705Z,14.80
2017-10-20T02:43:00.700Z,14.50
2017-10-20T02:44:00.704Z,14.70
2017-10-20T02:45:00.692Z,14.40
2017-10-20T02:46:00.684Z,14.10
2017-10-20T02:47:21.692Z,14.60
2017-10-20T02:48:00.677Z,13.40
2017-10-20T02:49:00.672Z,14.60
2017-10-20T02:50:00.666Z,15.30
2017-10-20T02:51:00.660Z,14.80
2017-10-20T02:52:00.661Z,14.50
2017-10-20T02:53:21.665Z,15.70
2017-10-20T02:54:00.649Z,15.80
2017-10-20T02:55:00.644Z,15.80
2017-10-20T02:56:00.642Z,18.10
2017-10-20T02:57:00.637Z,17.30
2017-10-20T02:58:00.636Z,20.90
2017-10-20T02:59:21.634Z,23.10
2017-10-20T03:00:00.629Z,26.90
2017-10-20T03:01:00.629Z,24.80
2017-10-20T03:02:03.829Z,21.40
2017-10-20T03:03:02.600Z,20.60
2017-10-20T03:04:00.607Z,20.60
2017-10-20T03:05:21.609Z,19.90
2017-10-20T03:06:00.596Z,20.40
2017-10-20T03:07:00.598Z,21.00
2017-10-20T03:08:01.559Z,20.60
2017-10-20T03:09:00.575Z,20.40
2017-10-20T03:10:00.572Z,20.10
2017-10-20T03:11:21.577Z,19.00
2017-10-20T03:12:00.568Z,18.40
2017-10-20T03:13:00.561Z,17.80
2017-10-20T03:14:00.560Z,16.30
2017-10-20T03:15:00.578Z,16.50
2017-10-20T03:16:00.574Z,16.00
2017-10-20T03:17:21.550Z,15.70
2017-10-20T03:18:00.540Z,15.50
2017-10-20T03:19:00.531Z,15.20
2017-10-20T03:20:00.533Z,15.80
2017-10-20T03:21:00.525Z,15.00
2017-10-20T03:22:00.519Z,14.70
2017-10-20T03:23:21.520Z,14.30
2017-10-20T03:24:00.510Z,13.70
2017-10-20T03:25:00.505Z,14.10
2017-10-20T03:26:00.501Z,15.00
2017-10-20T03:27:00.497Z,14.40
2017-10-20T03:28:00.489Z,13.80
2017-10-20T03:29:21.491Z,14.10
2017-10-20T03:30:00.481Z,14.50
2017-10-20T03:31:00.483Z,14.40
2017-10-20T03:32:00.472Z,14.00
2017-10-20T03:33:00.467Z,13.90
2017-10-20T03:34:00.460Z,12.60
2017-10-20T03:35:21.463Z,14.00
2017-10-20T03:36:00.451Z,14.60
2017-10-20T03:37:00.451Z,14.90
2017-10-20T03:38:00.443Z,15.00
2017-10-20T03:39:00.439Z,13.60
2017-10-20T03:40:00.433Z,13.10
2017-10-20T03:41:21.439Z,13.80
2017-10-20T03:42:00.426Z,13.60
2017-10-20T03:43:00.419Z,14.60
2017-10-20T03:44:00.415Z,13.70
2017-10-20T03:45:00.410Z,14.40
2017-10-20T03:46:00.408Z,14.30
2017-10-20T03:47:21.409Z,14.70
2017-10-20T03:48:00.400Z,15.10
2017-10-20T03:49:00.393Z,14.40
2017-10-20T03:50:00.388Z,13.70
2017-10-20T03:51:00.382Z,14.80
2017-10-20T03:52:00.377Z,14.30
2017-10-20T03:53:21.383Z,13.50
2017-10-20T03:54:00.370Z,13.70
2017-10-20T03:55:00.364Z,13.90
2017-10-20T03:56:00.361Z,15.00
2017-10-20T03:57:00.355Z,13.90
2017-10-20T03:58:00.350Z,14.60
2017-10-20T03:59:21.366Z,14.20
2017-10-20T04:00:00.345Z,13.50
2017-10-20T04:01:00.340Z,13.80
2017-10-20T04:02:00.333Z,15.10
2017-10-20T04:03:00.328Z,14.10
2017-10-20T04:04:00.324Z,15.10
2017-10-20T04:05:21.335Z,13.80
2017-10-20T04:06:00.318Z,14.60
2017-10-20T04:07:00.314Z,14.90
2017-10-20T04:08:00.309Z,14.70
2017-10-20T04:09:00.300Z,13.90
2017-10-20T04:10:00.299Z,14.40
2017-10-20T04:11:21.299Z,14.80
2017-10-20T04:12:00.285Z,15.60
2017-10-20T04:13:00.281Z,15.20
2017-10-20T04:14:00.279Z,15.40
2017-10-20T04:15:00.273Z,14.50
2017-10-20T04:16:00.267Z,13.90
2017-10-20T04:17:21.273Z,15.80
2017-10-20T04:18:00.258Z,14.90
2017-10-20T04:19:00.252Z,14.90
2017-10-20T04:20:00.249Z,15.50
2017-10-20T04:21:00.242Z,14.70
2017-10-20T04:22:00.241Z,14.80
2017-10-20T04:23:21.242Z,15.30
2017-10-20T04:24:00.238Z,14.10
2017-10-20T04:25:00.227Z,15.90
2017-10-20T04:26:00.224Z,15.70
2017-10-20T04:27:00.215Z,16.40
2017-10-20T04:28:00.211Z,15.70
2017-10-20T04:29:21.213Z,14.80
2017-10-20T04:30:00.204Z,15.40
2017-10-20T04:31:00.200Z,15.50
2017-10-20T04:32:01.043Z,14.50
2017-10-20T04:33:00.188Z,16.00
2017-10-20T04:34:00.184Z,14.70
2017-10-20T04:35:21.187Z,15.40
2017-10-20T04:36:00.176Z,15.00
2017-10-20T04:37:01.044Z,15.50
2017-10-20T04:38:00.163Z,15.90
2017-10-20T04:39:00.159Z,15.90
2017-10-20T04:40:00.155Z,15.70
2017-10-20T04:41:21.158Z,16.90
2017-10-20T04:42:00.149Z,15.80
2017-10-20T04:43:00.150Z,16.10
2017-10-20T04:44:00.136Z,17.90
2017-10-20T04:45:00.132Z,17.30
2017-10-20T04:46:00.128Z,16.50
2017-10-20T04:47:21.130Z,15.50
2017-10-20T04:48:00.118Z,15.90
2017-10-20T04:49:00.118Z,16.60
2017-10-20T04:50:00.109Z,14.60
2017-10-20T04:51:00.108Z,15.80
2017-10-20T04:52:00.109Z,18.30
2017-10-20T04:53:21.101Z,16.10
2017-10-20T04:54:00.089Z,15.80
2017-10-20T04:55:00.085Z,16.60
2017-10-20T04:56:00.080Z,16.30
2017-10-20T04:57:00.077Z,15.00
2017-10-20T04:58:00.069Z,15.60
2017-10-20T04:59:21.070Z,15.20
2017-10-20T05:00:00.077Z,14.10
2017-10-20T05:01:00.057Z,15.00
2017-10-20T05:02:00.053Z,15.80
2017-10-20T05:03:00.048Z,14.80
2017-10-20T05:04:00.048Z,14.70
2017-10-20T05:05:21.045Z,15.10
2017-10-20T05:06:00.033Z,15.70
2017-10-20T05:07:00.029Z,15.30
2017-10-20T05:08:00.024Z,14.80
2017-10-20T05:09:00.018Z,16.00
2017-10-20T05:10:00.017Z,15.50
2017-10-20T05:11:21.015Z,15.30
2017-10-20T05:12:00.011Z,14.50
2017-10-20T05:13:00.010Z,15.50
2017-10-20T05:13:59.995Z,16.20
2017-10-20T05:14:59.990Z,15.20
2017-10-20T05:15:59.987Z,14.50
2017-10-20T05:17:20.988Z,14.90
2017-10-20T05:17:59.976Z,15.50
2017-10-20T05:18:59.968Z,15.20
2017-10-20T05:19:59.970Z,15.80
2017-10-20T05:20:59.961Z,14.70
2017-10-20T05:21:59.961Z,14.90
2017-10-20T05:23:20.960Z,15.90
2017-10-20T05:23:59.947Z,15.70
2017-10-20T05:24:59.941Z,15.90
2017-10-20T05:25:59.940Z,15.80
2017-10-20T05:26:59.933Z,15.60
2017-10-20T05:27:59.926Z,15.40
2017-10-20T05:29:20.931Z,15.50
2017-10-20T05:29:59.920Z,14.80
2017-10-20T05:30:59.915Z,14.80
2017-10-20T05:31:59.910Z,16.00
2017-10-20T05:32:59.903Z,15.30
2017-10-20T05:33:59.896Z,16.30
2017-10-20T05:35:20.901Z,15.20
2017-10-20T05:35:59.889Z,17.00
2017-10-20T05:36:59.887Z,17.60
2017-10-20T05:37:59.878Z,16.20
2017-10-20T05:38:59.874Z,16.20
2017-10-20T05:39:59.869Z,15.80
2017-10-20T05:41:20.874Z,15.30
2017-10-20T05:41:59.860Z,14.50
2017-10-20T05:42:59.873Z,15.70
2017-10-20T05:43:59.852Z,15.40
2017-10-20T05:44:59.845Z,15.20
2017-10-20T05:45:59.841Z,14.20
2017-10-20T05:47:20.844Z,16.40
2017-10-20T05:47:59.830Z,15.30
2017-10-20T05:48:59.828Z,14.20
2017-10-20T05:49:59.823Z,15.20
2017-10-20T05:50:59.824Z,14.30
2017-10-20T05:51:59.814Z,14.30
2017-10-20T05:53:20.816Z,13.90
2017-10-20T05:53:59.804Z,13.50
2017-10-20T05:54:59.798Z,15.30
2017-10-20T05:55:59.797Z,15.00
2017-10-20T05:56:59.792Z,14.80
2017-10-20T05:57:59.786Z,14.50
2017-10-20T05:59:20.788Z,14.80
2017-10-20T05:59:59.775Z,14.30
2017-10-20T06:00:59.773Z,14.30
2017-10-20T06:01:59.768Z,14.60
2017-10-20T06:02:59.761Z,14.80
2017-10-20T06:03:59.758Z,15.20
2017-10-20T06:05:20.760Z,15.00
2017-10-20T06:05:59.750Z,15.30
2017-10-20T06:06:59.743Z,16.40
2017-10-20T06:07:59.740Z,15.60
2017-10-20T06:08:59.734Z,16.30
2017-10-20T06:09:59.729Z,15.90
2017-10-20T06:11:20.739Z,15.10
2017-10-20T06:11:59.717Z,15.10
2017-10-20T06:12:59.713Z,14.80
2017-10-20T06:13:59.712Z,16.40
2017-10-20T06:14:59.703Z,17.60
2017-10-20T06:16:00.572Z,18.90
2017-10-20T06:17:20.702Z,15.50
2017-10-20T06:17:59.688Z,17.10
2017-10-20T06:18:59.686Z,16.40
2017-10-20T06:19:59.690Z,17.30
2017-10-20T06:20:59.682Z,18.00
2017-10-20T06:21:59.669Z,16.80
2017-10-20T06:23:20.674Z,15.90
2017-10-20T06:23:59.664Z,15.40
2017-10-20T06:24:59.658Z,15.90
2017-10-20T06:25:59.656Z,15.40
2017-10-20T06:26:59.651Z,16.00
2017-10-20T06:27:59.644Z,17.60
2017-10-20T06:29:20.647Z,15.50
2017-10-20T06:29:59.636Z,16.90
2017-10-20T06:30:59.630Z,17.00
2017-10-20T06:31:59.625Z,17.50
2017-10-20T06:32:59.621Z,16.10
2017-10-20T06:33:59.616Z,16.30
2017-10-20T06:35:20.618Z,15.80
2017-10-20T06:35:59.607Z,14.40
2017-10-20T06:36:59.599Z,14.70
2017-10-20T06:37:59.598Z,15.30
2017-10-20T06:38:59.594Z,16.20
2017-10-20T06:39:59.588Z,15.80
2017-10-20T06:41:20.592Z,15.10
2017-10-20T06:41:59.581Z,15.60
2017-10-20T06:42:59.575Z,18.00
2017-10-20T06:43:59.573Z,16.70
2017-10-20T06:44:59.565Z,16.60
2017-10-20T06:45:59.566Z,18.70
2017-10-20T06:47:20.562Z,17.70
2017-10-20T06:47:59.550Z,19.40
2017-10-20T06:48:59.548Z,20.50
2017-10-20T06:49:59.547Z,19.20
2017-10-20T06:50:59.543Z,18.10
2017-10-20T06:51:59.538Z,18.60
2017-10-20T06:53:20.542Z,18.80
2017-10-20T06:53:59.527Z,18.50
2017-10-20T06:54:59.528Z,18.40
2017-10-20T06:55:59.520Z,18.90
2017-10-20T06:56:59.514Z,17.00
2017-10-20T06:57:59.509Z,18.30
2017-10-20T06:59:20.514Z,19.10
2017-10-20T06:59:59.502Z,18.40
2017-10-20T07:00:59.499Z,17.00
2017-10-20T07:01:59.494Z,18.60
2017-10-20T07:02:59.488Z,17.60
2017-10-20T07:03:59.484Z,17.70
2017-10-20T07:05:20.490Z,18.50
2017-10-20T07:05:59.479Z,19.80
2017-10-20T07:06:59.470Z,19.10
2017-10-20T07:07:59.470Z,19.40
2017-10-20T07:08:59.463Z,19.60
2017-10-20T07:09:59.462Z,19.40
2017-10-20T07:11:20.466Z,19.90
2017-10-20T07:11:59.455Z,20.30
2017-10-20T07:12:59.451Z,19.90
2017-10-20T07:13:59.448Z,22.00
2017-10-20T07:14:59.442Z,21.80
2017-10-20T07:15:59.439Z,21.00
2017-10-20T07:17:20.444Z,22.70
2017-10-20T07:17:59.431Z,23.30
2017-10-20T07:18:59.424Z,23.60
2017-10-20T07:19:59.421Z,21.10
2017-10-20T07:20:59.419Z,20.80
2017-10-20T07:21:59.412Z,19.50
2017-10-20T07:23:20.413Z,19.60
2017-10-20T07:23:59.413Z,21.60
2017-10-20T07:24:59.402Z,22.00
2017-10-20T07:25:59.397Z,21.30
2017-10-20T07:26:59.389Z,21.20
2017-10-20T07:27:59.390Z,21.00
2017-10-20T07:29:20.394Z,20.50
2017-10-20T07:29:59.376Z,20.90
2017-10-20T07:30:59.375Z,19.40
2017-10-20T07:31:59.369Z,18.80
2017-10-20T07:32:59.368Z,21.00
2017-10-20T07:33:59.360Z,19.60
2017-10-20T07:35:20.365Z,19.30
2017-10-20T07:35:59.352Z,18.90
2017-10-20T07:36:59.347Z,17.60
2017-10-20T07:37:59.343Z,20.00
2017-10-20T07:38:59.339Z,19.20
2017-10-20T07:39:59.335Z,19.20
2017-10-20T07:41:20.337Z,18.70
2017-10-20T07:41:59.326Z,20.40
2017-10-20T07:42:59.325Z,20.00
2017-10-20T07:43:59.315Z,19.90
2017-10-20T07:44:59.313Z,18.40
2017-10-20T07:45:59.307Z,18.60
2017-10-20T07:47:20.317Z,21.00
2017-10-20T07:47:59.311Z,20.20
2017-10-20T07:48:59.295Z,20.50
2017-10-20T07:49:59.291Z,20.80
2017-10-20T07:50:59.287Z,20.10
2017-10-20T07:51:59.280Z,20.70
2017-10-20T07:53:20.291Z,20.90
2017-10-20T07:53:59.272Z,19.70
2017-10-20T07:54:59.267Z,19.80
2017-10-20T07:55:59.265Z,19.00
2017-10-20T07:56:59.261Z,19.90
2017-10-20T07:57:59.256Z,21.90
2017-10-20T07:59:20.261Z,21.40
2017-10-20T07:59:59.247Z,21.10
2017-10-20T08:00:59.243Z,21.60
2017-10-20T08:01:59.253Z,20.90
2017-10-20T08:02:59.250Z,19.00
2017-10-20T08:03:59.247Z,18.80
2017-10-20T08:05:20.237Z,19.60
2017-10-20T08:05:59.223Z,19.60
2017-10-20T08:06:59.220Z,19.40
2017-10-20T08:07:59.210Z,21.80
2017-10-20T08:08:59.209Z,21.00
2017-10-20T08:09:59.207Z,19.20
2017-10-20T08:11:20.221Z,18.80
2017-10-20T08:11:59.196Z,18.60
2017-10-20T08:12:59.193Z,18.80
2017-10-20T08:13:59.192Z,21.30
2017-10-20T08:14:59.185Z,20.30
2017-10-20T08:15:59.179Z,18.80
2017-10-20T08:17:20.183Z,18.30
2017-10-20T08:17:59.179Z,19.00
2017-10-20T08:18:59.170Z,19.20
2017-10-20T08:19:59.163Z,19.50
2017-10-20T08:20:59.163Z,20.40
2017-10-20T08:21:59.156Z,18.50
2017-10-20T08:23:20.159Z,19.80
2017-10-20T08:23:59.159Z,19.80
2017-10-20T08:24:59.152Z,19.10
2017-10-20T08:25:59.140Z,19.90
2017-10-20T08:26:59.133Z,19.90
2017-10-20T08:27:59.132Z,20.30
2017-10-20T08:29:20.136Z,19.60
2017-10-20T08:29:59.124Z,20.30
2017-10-20T08:30:59.117Z,21.40
2017-10-20T08:31:59.129Z,19.50
2017-10-20T08:32:59.111Z,20.20
2017-10-20T08:33:59.116Z,21.50
2017-10-20T08:35:20.110Z,20.80
2017-10-20T08:35:59.096Z,20.30
2017-10-20T08:36:59.126Z,19.80
2017-10-20T08:37:59.093Z,18.80
2017-10-20T08:38:59.087Z,20.00
2017-10-20T08:39:59.085Z,19.30
2017-10-20T08:41:20.089Z,19.80
2017-10-20T08:41:59.074Z,20.10
2017-10-20T08:42:59.071Z,20.10
2017-10-20T08:43:59.072Z,19.80
2017-10-20T08:44:59.065Z,19.10
2017-10-20T08:45:59.060Z,20.00
2017-10-20T08:47:20.062Z,19.30
2017-10-20T08:47:59.053Z,19.10
2017-10-20T08:48:59.055Z,19.10
2017-10-20T08:49:59.048Z,18.00
2017-10-20T08:50:59.049Z,18.90
2017-10-20T08:51:59.034Z,19.40
2017-10-20T08:53:20.040Z,19.90
2017-10-20T08:53:59.033Z,21.80
2017-10-20T08:54:59.039Z,21.10
2017-10-20T08:55:59.032Z,19.20
2017-10-20T08:56:59.032Z,20.50
2017-10-20T08:57:59.031Z,20.50
2017-10-20T08:59:20.018Z,20.30
2017-10-20T08:59:59.005Z,19.50
2017-10-20T09:00:59.001Z,20.30
2017-10-20T09:01:59.002Z,20.40
2017-10-20T09:02:58.995Z,19.50
2017-10-20T09:03:58.992Z,21.00
2017-10-20T09:05:19.998Z,20.30
2017-10-20T09:05:58.986Z,20.00
2017-10-20T09:06:58.978Z,21.00
2017-10-20T09:07:58.975Z,21.50
2017-10-20T09:08:58.972Z,22.80
2017-10-20T09:09:58.970Z,19.00
2017-10-20T09:11:19.969Z,20.80
2017-10-20T09:11:58.962Z,20.80
2017-10-20T09:12:58.966Z,19.70
2017-10-20T09:13:58.956Z,20.10
2017-10-20T09:14:58.952Z,20.80
2017-10-20T09:15:58.947Z,19.20
2017-10-20T09:17:19.953Z,18.80
2017-10-20T09:17:58.940Z,19.40
2017-10-20T09:18:58.936Z,21.00
2017-10-20T09:19:58.932Z,20.20
2017-10-20T09:20:58.935Z,19.60
2017-10-20T09:21:58.925Z,21.50
2017-10-20T09:23:19.932Z,20.40
2017-10-20T09:23:58.910Z,18.70
2017-10-20T09:24:58.912Z,20.80
2017-10-20T09:25:58.909Z,19.20
2017-10-20T09:26:58.925Z,18.70
2017-10-20T09:27:58.908Z,19.40
2017-10-20T09:29:19.913Z,21.20
2017-10-20T09:29:58.898Z,21.80
2017-10-20T09:30:58.891Z,18.90
2017-10-20T09:31:58.892Z,19.10
2017-10-20T09:32:58.884Z,19.00
2017-10-20T09:33:58.881Z,18.80
2017-10-20T09:35:19.884Z,20.60
2017-10-20T09:35:58.877Z,20.00
2017-10-20T09:36:58.873Z,19.20
2017-10-20T09:37:58.874Z,18.70
2017-10-20T09:38:58.872Z,20.20
2017-10-20T09:39:58.859Z,18.40
2017-10-20T09:41:19.865Z,18.70
2017-10-20T09:41:58.866Z,19.80
2017-10-20T09:42:58.863Z,17.30
2017-10-20T09:43:58.864Z,18.40
2017-10-20T09:44:58.843Z,17.60
2017-10-20T09:45:58.839Z,18.60
2017-10-20T09:47:19.841Z,19.00
2017-10-20T09:47:58.838Z,17.10
2017-10-20T09:48:58.839Z,18.00
2017-10-20T09:49:58.826Z,18.60
2017-10-20T09:50:58.819Z,18.30
2017-10-20T09:51:58.820Z,17.50
2017-10-20T09:53:19.828Z,17.70
2017-10-20T09:53:58.816Z,17.80
2017-10-20T09:54:58.810Z,17.40
2017-10-20T09:55:58.806Z,17.10
2017-10-20T09:56:58.803Z,16.20
2017-10-20T09:57:58.803Z,16.50
2017-10-20T09:59:19.805Z,16.00
2017-10-20T09:59:58.792Z,14.70
2017-10-20T10:00:58.826Z,15.00
2017-10-20T10:01:58.792Z,14.70
2017-10-20T10:02:58.785Z,15.40
2017-10-20T10:03:58.781Z,14.10
2017-10-20T10:05:19.784Z,13.20
2017-10-20T10:05:58.776Z,14.50
2017-10-20T10:06:58.780Z,15.40
2017-10-20T10:07:58.765Z,14.30
2017-10-20T10:08:58.765Z,13.80
2017-10-20T10:09:58.762Z,13.10
2017-10-20T10:11:19.803Z,11.90
2017-10-20T10:11:58.760Z,11.40
2017-10-20T10:12:58.762Z,10.80
2017-10-20T10:13:58.756Z,10.80
2017-10-20T10:14:58.750Z,11.00
2017-10-20T10:15:58.751Z,10.50
2017-10-20T10:17:19.756Z,10.10
2017-10-20T10:17:58.747Z,9.80
2017-10-20T10:18:58.750Z,10.20
2017-10-20T10:19:58.741Z,10.00
2017-10-20T10:20:58.742Z,9.70
2017-10-20T10:21:58.738Z,10.10
2017-10-20T10:23:19.746Z,9.50
2017-10-20T10:23:58.734Z,8.60
2017-10-20T10:24:58.730Z,9.10
2017-10-20T10:25:58.732Z,9.10
2017-10-20T10:26:58.729Z,9.30
2017-10-20T10:27:58.727Z,9.40
2017-10-20T10:29:19.733Z,9.50
2017-10-20T10:29:58.720Z,9.40
2017-10-20T10:30:58.719Z,8.80
2017-10-20T10:31:58.721Z,9.30
2017-10-20T10:32:58.717Z,8.70
2017-10-20T10:33:58.717Z,9.40
2017-10-20T10:35:19.718Z,9.70
2017-10-20T10:35:58.707Z,9.20
2017-10-20T10:36:58.708Z,8.60
2017-10-20T10:37:58.703Z,9.00
2017-10-20T10:38:58.701Z,9.10
2017-10-20T10:39:58.699Z,9.10
2017-10-20T10:41:19.705Z,8.90
2017-10-20T10:41:58.694Z,8.50
2017-10-20T10:42:58.690Z,9.30
2017-10-20T10:43:58.688Z,8.90
2017-10-20T10:44:58.687Z,9.70
2017-10-20T10:45:58.684Z,8.90
2017-10-20T10:47:19.691Z,8.70
2017-10-20T10:47:58.681Z,9.70
2017-10-20T10:48:58.678Z,8.80
2017-10-20T10:49:58.675Z,9.50
2017-10-20T10:50:58.675Z,8.90
2017-10-20T10:51:58.679Z,9.10
2017-10-20T10:53:19.680Z,8.60
2017-10-20T10:53:58.666Z,8.00
2017-10-20T10:54:58.663Z,7.50
2017-10-20T10:55:58.666Z,7.40
2017-10-20T10:56:58.660Z,8.20
2017-10-20T10:57:58.662Z,7.70
2017-10-20T10:59:19.663Z,7.60
2017-10-20T10:59:58.659Z,7.60
2017-10-20T11:00:58.653Z,7.40
2017-10-20T11:01:58.651Z,7.40
2017-10-20T11:02:58.651Z,7.50
2017-10-20T11:03:58.646Z,7.80
2017-10-20T11:05:19.653Z,7.70
2017-10-20T11:05:58.642Z,6.30
2017-10-20T11:06:58.639Z,6.60
2017-10-20T11:07:58.638Z,5.20
2017-10-20T11:08:58.636Z,5.60
2017-10-20T11:09:58.632Z,5.10
2017-10-20T11:11:19.640Z,4.80
2017-10-20T11:11:58.628Z,5.30
2017-10-20T11:12:58.627Z,4.10
2017-10-20T11:13:58.625Z,3.80
2017-10-20T11:14:58.620Z,4.00
2017-10-20T11:15:58.621Z,3.70
2017-10-20T11:17:19.629Z,3.70
2017-10-20T11:17:58.621Z,3.70
2017-10-20T11:18:58.616Z,3.00
2017-10-20T11:19:58.615Z,2.70
2017-10-20T11:20:58.611Z,2.70
2017-10-20T11:21:58.609Z,2.20
2017-10-20T11:23:19.622Z,1.90
2017-10-20T11:23:58.599Z,1.70
2017-10-20T11:24:58.607Z,1.70
2017-10-20T11:25:58.605Z,1.50
2017-10-20T11:26:58.596Z,1.50
2017-10-20T11:27:58.597Z,1.40
2017-10-20T11:29:19.601Z,1.20
2017-10-20T11:29:58.590Z,1.30
2017-10-20T11:30:58.590Z,1.00
2017-10-20T11:31:58.599Z,1.00
2017-10-20T11:32:58.584Z,1.00
2017-10-20T11:33:58.579Z,0.90
2017-10-20T11:35:19.584Z,1.10
2017-10-20T11:35:58.574Z,1.20
2017-10-20T11:36:58.577Z,1.10
2017-10-20T11:37:58.571Z,1.00
2017-10-20T11:38:58.572Z,1.00
2017-10-20T11:39:58.565Z,1.00
2017-10-20T11:41:19.574Z,0.80
2017-10-20T11:41:58.565Z,0.90
2017-10-20T11:42:58.561Z,1.10
2017-10-20T11:43:58.557Z,0.90
2017-10-20T11:44:58.556Z,1.10
2017-10-20T11:45:58.576Z,0.90
2017-10-20T11:47:19.559Z,1.00
2017-10-20T11:47:58.549Z,1.00
2017-10-20T11:48:58.549Z,1.10
2017-10-20T11:49:58.546Z,1.00
2017-10-20T11:50:58.541Z,1.00
2017-10-20T11:51:58.539Z,1.00
2017-10-20T11:53:19.545Z,1.10
2017-10-20T11:53:58.539Z,1.00
2017-10-20T11:54:58.529Z,1.00
2017-10-20T11:55:58.528Z,1.20
2017-10-20T11:56:58.529Z,1.10
2017-10-20T11:57:58.524Z,1.20
2017-10-20T11:59:19.540Z,1.10
2017-10-20T11:59:58.517Z,1.10
2017-10-20T12:00:58.520Z,1.10
2017-10-20T12:01:58.512Z,1.00
2017-10-20T12:02:58.511Z,1.30
2017-10-20T12:03:58.508Z,1.30
2017-10-20T12:05:19.515Z,1.20
2017-10-20T12:05:58.509Z,1.30
2017-10-20T12:06:58.502Z,1.20
2017-10-20T12:07:58.504Z,1.20
2017-10-20T12:08:58.498Z,1.10
2017-10-20T12:09:58.496Z,1.10
2017-10-20T12:11:19.502Z,1.20
2017-10-20T12:11:58.495Z,1.20
2017-10-20T12:12:58.490Z,1.10
2017-10-20T12:13:58.484Z,1.10
2017-10-20T12:14:58.485Z,1.40
2017-10-20T12:15:58.481Z,1.20
2017-10-20T12:17:19.489Z,1.10
2017-10-20T12:17:58.483Z,1.20
2017-10-20T12:18:58.473Z,1.20
2017-10-20T12:19:58.474Z,1.20
2017-10-20T12:20:58.469Z,1.20
2017-10-20T12:21:58.467Z,1.50
2017-10-20T12:23:19.473Z,1.20
2017-10-20T12:23:58.464Z,1.10
2017-10-20T12:24:58.458Z,1.40
2017-10-20T12:25:58.456Z,1.30
2017-10-20T12:26:58.455Z,1.40
2017-10-20T12:27:58.455Z,1.30
2017-10-20T12:29:19.456Z,1.40
2017-10-20T12:29:58.446Z,1.50
2017-10-20T12:30:58.448Z,1.40
2017-10-20T12:31:58.438Z,1.30
2017-10-20T12:32:58.442Z,1.50
2017-10-20T12:33:58.432Z,1.50
2017-10-20T12:35:19.452Z,1.30
2017-10-20T12:35:58.428Z,1.40
2017-10-20T12:36:58.427Z,1.60
2017-10-20T12:37:58.425Z,1.40
2017-10-20T12:38:58.419Z,1.60
2017-10-20T12:39:58.420Z,1.70
2017-10-20T12:41:19.424Z,1.50
2017-10-20T12:41:58.419Z,1.50
2017-10-20T12:42:58.410Z,1.30
2017-10-20T12:43:58.405Z,1.10
2017-10-20T12:44:58.403Z,1.40
2017-10-20T12:45:58.403Z,1.20
2017-10-20T12:47:19.404Z,1.40
2017-10-20T12:47:58.396Z,1.40
2017-10-20T12:48:58.391Z,1.40
2017-10-20T12:49:58.391Z,1.30
2017-10-20T12:50:58.388Z,1.40
2017-10-20T12:51:58.382Z,1.40
2017-10-20T12:53:19.391Z,1.30
2017-10-20T12:53:58.387Z,1.30
2017-10-20T12:54:58.376Z,1.60
2017-10-20T12:55:58.372Z,1.50
2017-10-20T12:56:58.371Z,1.50